sensor_id;sensor_type;location;lat;lon;timestamp;P1;durP1;ratioP1;P2;durP2;ratioP2
22176;SDS011;11254;50.098;8.726;2022-09-30T00:01:42;12.73;;;6.15;;
22176;SDS011;11254;50.098;8.726;2022-09-30T00:04:12;12.85;;;6.72;;
22176;SDS011;11254;50.098;8.726;2022-09-30T00:06:41;14.82;;;6.88;;
22176;SDS011;11254;50.098;8.726;2022-09-30T00:09:11;12.20;;;6.15;;
22176;SDS011;11254;50.098;8.726;2022-09-30T00:11:40;14.23;;;6.35;;
22176;SDS011;11254;50.098;8.726;2022-09-30T00:14:11;12.18;;;6.15;;
22176;SDS011;11254;50.098;8.726;2022-09-30T00:16:40;13.55;;;6.30;;
22176;SDS011;11254;50.098;8.726;2022-09-30T00:19:09;12.40;;;6.55;;
22176;SDS011;11254;50.098;8.726;2022-09-30T00:21:38;12.27;;;6.40;;
22176;SDS011;11254;50.098;8.726;2022-09-30T00:24:06;11.18;;;6.55;;
22176;SDS011;11254;50.098;8.726;2022-09-30T00:26:36;14.57;;;6.43;;
22176;SDS011;11254;50.098;8.726;2022-09-30T00:29:05;18.40;;;6.80;;
22176;SDS011;11254;50.098;8.726;2022-09-30T00:31:33;11.40;;;6.13;;
22176;SDS011;11254;50.098;8.726;2022-09-30T00:34:02;12.55;;;6.75;;
22176;SDS011;11254;50.098;8.726;2022-09-30T00:36:35;11.98;;;6.72;;
22176;SDS011;11254;50.098;8.726;2022-09-30T00:39:04;13.80;;;7.22;;
22176;SDS011;11254;50.098;8.726;2022-09-30T00:41:33;12.43;;;6.72;;
22176;SDS011;11254;50.098;8.726;2022-09-30T00:46:47;13.45;;;7.35;;
22176;SDS011;11254;50.098;8.726;2022-09-30T00:49:16;12.93;;;6.82;;
22176;SDS011;11254;50.098;8.726;2022-09-30T00:51:48;12.52;;;6.68;;
22176;SDS011;11254;50.098;8.726;2022-09-30T00:54:20;10.20;;;5.93;;
22176;SDS011;11254;50.098;8.726;2022-09-30T00:56:51;13.77;;;6.78;;
22176;SDS011;11254;50.098;8.726;2022-09-30T00:59:21;16.02;;;7.30;;
22176;SDS011;11254;50.098;8.726;2022-09-30T01:01:51;12.57;;;6.43;;
22176;SDS011;11254;50.098;8.726;2022-09-30T01:04:20;15.50;;;5.88;;
22176;SDS011;11254;50.098;8.726;2022-09-30T01:06:49;12.30;;;6.35;;
22176;SDS011;11254;50.098;8.726;2022-09-30T01:09:18;16.50;;;7.35;;
22176;SDS011;11254;50.098;8.726;2022-09-30T01:11:46;13.40;;;6.53;;
22176;SDS011;11254;50.098;8.726;2022-09-30T01:14:16;10.90;;;6.15;;
22176;SDS011;11254;50.098;8.726;2022-09-30T01:16:48;12.68;;;6.57;;
22176;SDS011;11254;50.098;8.726;2022-09-30T01:19:31;11.93;;;6.20;;
22176;SDS011;11254;50.098;8.726;2022-09-30T01:22:10;12.52;;;6.68;;
22176;SDS011;11254;50.098;8.726;2022-09-30T01:24:45;12.00;;;6.53;;
22176;SDS011;11254;50.098;8.726;2022-09-30T01:27:20;12.55;;;7.00;;
22176;SDS011;11254;50.098;8.726;2022-09-30T01:29:59;11.75;;;6.40;;
22176;SDS011;11254;50.098;8.726;2022-09-30T01:32:36;11.45;;;6.57;;
22176;SDS011;11254;50.098;8.726;2022-09-30T01:35:10;15.32;;;5.85;;
22176;SDS011;11254;50.098;8.726;2022-09-30T01:37:42;12.52;;;6.70;;
22176;SDS011;11254;50.098;8.726;2022-09-30T01:40:14;13.25;;;6.22;;
22176;SDS011;11254;50.098;8.726;2022-09-30T01:42:50;10.65;;;6.00;;
22176;SDS011;11254;50.098;8.726;2022-09-30T01:45:19;18.23;;;6.35;;
22176;SDS011;11254;50.098;8.726;2022-09-30T01:47:55;13.93;;;6.22;;
22176;SDS011;11254;50.098;8.726;2022-09-30T01:50:26;13.25;;;6.63;;
22176;SDS011;11254;50.098;8.726;2022-09-30T01:52:57;11.05;;;6.38;;
22176;SDS011;11254;50.098;8.726;2022-09-30T01:55:32;13.25;;;6.13;;
22176;SDS011;11254;50.098;8.726;2022-09-30T01:58:04;12.35;;;6.00;;
22176;SDS011;11254;50.098;8.726;2022-09-30T02:00:35;12.55;;;5.93;;
22176;SDS011;11254;50.098;8.726;2022-09-30T02:03:07;13.65;;;6.65;;
22176;SDS011;11254;50.098;8.726;2022-09-30T02:05:37;11.15;;;5.88;;
22176;SDS011;11254;50.098;8.726;2022-09-30T02:08:09;12.73;;;6.40;;
22176;SDS011;11254;50.098;8.726;2022-09-30T02:10:40;10.02;;;6.00;;
22176;SDS011;11254;50.098;8.726;2022-09-30T02:13:11;12.55;;;5.60;;
22176;SDS011;11254;50.098;8.726;2022-09-30T02:15:42;12.20;;;5.95;;
22176;SDS011;11254;50.098;8.726;2022-09-30T02:18:14;11.98;;;5.78;;
22176;SDS011;11254;50.098;8.726;2022-09-30T02:20:46;12.00;;;6.03;;
22176;SDS011;11254;50.098;8.726;2022-09-30T02:23:15;11.00;;;5.93;;
22176;SDS011;11254;50.098;8.726;2022-09-30T02:25:47;13.63;;;6.50;;
22176;SDS011;11254;50.098;8.726;2022-09-30T02:28:18;10.90;;;6.20;;
22176;SDS011;11254;50.098;8.726;2022-09-30T02:30:48;10.07;;;5.88;;
22176;SDS011;11254;50.098;8.726;2022-09-30T02:33:19;12.13;;;5.95;;
22176;SDS011;11254;50.098;8.726;2022-09-30T02:35:51;11.55;;;6.40;;
22176;SDS011;11254;50.098;8.726;2022-09-30T02:38:23;12.38;;;6.32;;
22176;SDS011;11254;50.098;8.726;2022-09-30T02:40:54;12.73;;;6.20;;
22176;SDS011;11254;50.098;8.726;2022-09-30T02:43:23;12.48;;;6.30;;
22176;SDS011;11254;50.098;8.726;2022-09-30T02:45:54;11.25;;;5.95;;
22176;SDS011;11254;50.098;8.726;2022-09-30T02:48:28;11.95;;;6.57;;
22176;SDS011;11254;50.098;8.726;2022-09-30T02:50:59;11.10;;;5.97;;
22176;SDS011;11254;50.098;8.726;2022-09-30T02:53:31;11.63;;;5.95;;
22176;SDS011;11254;50.098;8.726;2022-09-30T02:56:07;11.32;;;6.40;;
22176;SDS011;11254;50.098;8.726;2022-09-30T02:58:39;12.38;;;6.47;;
22176;SDS011;11254;50.098;8.726;2022-09-30T03:01:11;11.18;;;5.95;;
22176;SDS011;11254;50.098;8.726;2022-09-30T03:03:42;11.73;;;6.13;;
22176;SDS011;11254;50.098;8.726;2022-09-30T03:06:11;13.43;;;5.93;;
22176;SDS011;11254;50.098;8.726;2022-09-30T03:08:40;14.38;;;5.93;;
22176;SDS011;11254;50.098;8.726;2022-09-30T03:11:10;11.52;;;5.95;;
22176;SDS011;11254;50.098;8.726;2022-09-30T03:16:35;12.43;;;6.03;;
22176;SDS011;11254;50.098;8.726;2022-09-30T03:19:13;12.82;;;5.97;;
22176;SDS011;11254;50.098;8.726;2022-09-30T03:21:50;12.23;;;6.93;;
22176;SDS011;11254;50.098;8.726;2022-09-30T03:24:24;12.23;;;6.00;;
22176;SDS011;11254;50.098;8.726;2022-09-30T03:26:59;13.20;;;6.40;;
22176;SDS011;11254;50.098;8.726;2022-09-30T03:29:33;10.85;;;6.07;;
22176;SDS011;11254;50.098;8.726;2022-09-30T03:32:09;9.93;;;5.60;;
22176;SDS011;11254;50.098;8.726;2022-09-30T03:34:46;11.13;;;5.50;;
22176;SDS011;11254;50.098;8.726;2022-09-30T03:37:20;13.07;;;5.50;;
22176;SDS011;11254;50.098;8.726;2022-09-30T03:39:52;10.82;;;6.40;;
22176;SDS011;11254;50.098;8.726;2022-09-30T03:42:23;9.70;;;5.18;;
22176;SDS011;11254;50.098;8.726;2022-09-30T03:44:56;12.85;;;6.20;;
22176;SDS011;11254;50.098;8.726;2022-09-30T03:47:25;16.33;;;6.05;;
22176;SDS011;11254;50.098;8.726;2022-09-30T03:49:56;10.52;;;5.88;;
22176;SDS011;11254;50.098;8.726;2022-09-30T03:52:26;9.93;;;5.25;;
22176;SDS011;11254;50.098;8.726;2022-09-30T03:54:57;9.50;;;4.88;;
22176;SDS011;11254;50.098;8.726;2022-09-30T03:57:28;12.43;;;4.88;;
22176;SDS011;11254;50.098;8.726;2022-09-30T03:59:57;9.25;;;5.60;;
22176;SDS011;11254;50.098;8.726;2022-09-30T04:02:25;9.95;;;5.22;;
22176;SDS011;11254;50.098;8.726;2022-09-30T04:04:56;10.77;;;5.18;;
22176;SDS011;11254;50.098;8.726;2022-09-30T04:07:24;11.88;;;4.55;;
22176;SDS011;11254;50.098;8.726;2022-09-30T04:09:52;12.18;;;5.20;;
22176;SDS011;11254;50.098;8.726;2022-09-30T04:12:21;9.38;;;5.22;;
22176;SDS011;11254;50.098;8.726;2022-09-30T04:14:49;11.43;;;4.72;;
22176;SDS011;11254;50.098;8.726;2022-09-30T04:17:18;10.05;;;4.30;;
22176;SDS011;11254;50.098;8.726;2022-09-30T04:19:46;8.20;;;4.68;;
22176;SDS011;11254;50.098;8.726;2022-09-30T04:22:16;10.48;;;5.53;;
22176;SDS011;11254;50.098;8.726;2022-09-30T04:24:49;10.35;;;5.70;;
22176;SDS011;11254;50.098;8.726;2022-09-30T04:27:17;9.38;;;4.78;;
22176;SDS011;11254;50.098;8.726;2022-09-30T04:29:46;10.20;;;4.88;;
22176;SDS011;11254;50.098;8.726;2022-09-30T04:32:14;9.05;;;4.85;;
22176;SDS011;11254;50.098;8.726;2022-09-30T04:34:42;9.38;;;4.72;;
22176;SDS011;11254;50.098;8.726;2022-09-30T04:37:11;9.73;;;5.38;;
22176;SDS011;11254;50.098;8.726;2022-09-30T04:39:41;12.20;;;5.47;;
22176;SDS011;11254;50.098;8.726;2022-09-30T04:42:10;11.20;;;5.13;;
22176;SDS011;11254;50.098;8.726;2022-09-30T04:44:38;9.25;;;4.88;;
22176;SDS011;11254;50.098;8.726;2022-09-30T04:47:06;11.82;;;5.47;;
22176;SDS011;11254;50.098;8.726;2022-09-30T04:49:35;9.05;;;4.85;;
22176;SDS011;11254;50.098;8.726;2022-09-30T04:52:04;7.93;;;4.43;;
22176;SDS011;11254;50.098;8.726;2022-09-30T04:54:32;17.33;;;5.65;;
22176;SDS011;11254;50.098;8.726;2022-09-30T04:57:02;11.77;;;5.25;;
22176;SDS011;11254;50.098;8.726;2022-09-30T04:59:30;10.45;;;5.30;;
22176;SDS011;11254;50.098;8.726;2022-09-30T05:01:59;9.63;;;4.90;;
22176;SDS011;11254;50.098;8.726;2022-09-30T05:04:27;9.48;;;4.70;;
22176;SDS011;11254;50.098;8.726;2022-09-30T05:06:58;7.97;;;4.47;;
22176;SDS011;11254;50.098;8.726;2022-09-30T05:09:27;7.78;;;4.60;;
22176;SDS011;11254;50.098;8.726;2022-09-30T05:11:55;12.07;;;5.10;;
22176;SDS011;11254;50.098;8.726;2022-09-30T05:14:25;9.85;;;4.85;;
22176;SDS011;11254;50.098;8.726;2022-09-30T05:16:53;9.48;;;5.22;;
22176;SDS011;11254;50.098;8.726;2022-09-30T05:19:21;9.77;;;4.90;;
22176;SDS011;11254;50.098;8.726;2022-09-30T05:21:50;9.45;;;5.00;;
22176;SDS011;11254;50.098;8.726;2022-09-30T05:24:18;11.85;;;5.55;;
22176;SDS011;11254;50.098;8.726;2022-09-30T05:26:47;12.18;;;5.25;;
22176;SDS011;11254;50.098;8.726;2022-09-30T05:29:15;15.15;;;5.57;;
22176;SDS011;11254;50.098;8.726;2022-09-30T05:31:45;11.45;;;5.20;;
22176;SDS011;11254;50.098;8.726;2022-09-30T05:34:13;10.43;;;5.45;;
22176;SDS011;11254;50.098;8.726;2022-09-30T05:36:42;13.82;;;6.65;;
22176;SDS011;11254;50.098;8.726;2022-09-30T05:39:11;15.55;;;7.47;;
22176;SDS011;11254;50.098;8.726;2022-09-30T05:41:39;11.30;;;6.00;;
22176;SDS011;11254;50.098;8.726;2022-09-30T05:44:08;11.82;;;5.53;;
22176;SDS011;11254;50.098;8.726;2022-09-30T05:46:36;11.32;;;5.82;;
22176;SDS011;11254;50.098;8.726;2022-09-30T05:49:06;12.27;;;5.40;;
22176;SDS011;11254;50.098;8.726;2022-09-30T05:51:34;10.35;;;5.22;;
22176;SDS011;11254;50.098;8.726;2022-09-30T05:54:03;12.68;;;5.25;;
22176;SDS011;11254;50.098;8.726;2022-09-30T05:56:31;8.93;;;5.40;;
22176;SDS011;11254;50.098;8.726;2022-09-30T05:59:00;10.88;;;5.65;;
22176;SDS011;11254;50.098;8.726;2022-09-30T06:01:29;14.75;;;6.15;;
22176;SDS011;11254;50.098;8.726;2022-09-30T06:03:57;11.10;;;5.78;;
22176;SDS011;11254;50.098;8.726;2022-09-30T06:06:27;11.27;;;5.43;;
22176;SDS011;11254;50.098;8.726;2022-09-30T06:08:56;14.13;;;6.32;;
22176;SDS011;11254;50.098;8.726;2022-09-30T06:11:25;15.10;;;6.50;;
22176;SDS011;11254;50.098;8.726;2022-09-30T06:13:53;11.35;;;6.20;;
22176;SDS011;11254;50.098;8.726;2022-09-30T06:16:22;13.00;;;6.80;;
22176;SDS011;11254;50.098;8.726;2022-09-30T06:18:51;14.65;;;7.28;;
22176;SDS011;11254;50.098;8.726;2022-09-30T06:21:19;13.10;;;6.70;;
22176;SDS011;11254;50.098;8.726;2022-09-30T06:23:49;12.45;;;6.40;;
22176;SDS011;11254;50.098;8.726;2022-09-30T06:26:17;15.32;;;7.13;;
22176;SDS011;11254;50.098;8.726;2022-09-30T06:28:46;12.80;;;7.03;;
22176;SDS011;11254;50.098;8.726;2022-09-30T06:31:15;13.80;;;6.70;;
22176;SDS011;11254;50.098;8.726;2022-09-30T06:33:43;15.15;;;7.00;;
22176;SDS011;11254;50.098;8.726;2022-09-30T06:36:12;11.82;;;6.45;;
22176;SDS011;11254;50.098;8.726;2022-09-30T06:38:40;13.88;;;7.07;;
22176;SDS011;11254;50.098;8.726;2022-09-30T06:41:10;13.38;;;6.63;;
22176;SDS011;11254;50.098;8.726;2022-09-30T06:43:39;14.07;;;7.07;;
22176;SDS011;11254;50.098;8.726;2022-09-30T06:46:22;14.40;;;7.07;;
22176;SDS011;11254;50.098;8.726;2022-09-30T06:48:56;20.33;;;7.93;;
22176;SDS011;11254;50.098;8.726;2022-09-30T06:51:39;15.73;;;7.15;;
22176;SDS011;11254;50.098;8.726;2022-09-30T06:54:07;12.60;;;6.53;;
22176;SDS011;11254;50.098;8.726;2022-09-30T06:56:37;13.07;;;6.57;;
22176;SDS011;11254;50.098;8.726;2022-09-30T06:59:06;13.25;;;7.00;;
22176;SDS011;11254;50.098;8.726;2022-09-30T07:01:34;13.38;;;7.47;;
22176;SDS011;11254;50.098;8.726;2022-09-30T07:04:02;19.27;;;6.43;;
22176;SDS011;11254;50.098;8.726;2022-09-30T07:06:35;12.70;;;6.47;;
22176;SDS011;11254;50.098;8.726;2022-09-30T07:09:04;13.85;;;7.43;;
22176;SDS011;11254;50.098;8.726;2022-09-30T07:11:33;12.30;;;6.32;;
22176;SDS011;11254;50.098;8.726;2022-09-30T07:14:03;14.50;;;7.43;;
22176;SDS011;11254;50.098;8.726;2022-09-30T07:16:32;12.77;;;6.45;;
22176;SDS011;11254;50.098;8.726;2022-09-30T07:19:01;23.48;;;10.38;;
22176;SDS011;11254;50.098;8.726;2022-09-30T07:21:30;13.52;;;6.70;;
22176;SDS011;11254;50.098;8.726;2022-09-30T07:23:58;12.20;;;5.80;;
22176;SDS011;11254;50.098;8.726;2022-09-30T07:26:27;9.82;;;5.80;;
22176;SDS011;11254;50.098;8.726;2022-09-30T07:28:56;19.45;;;7.00;;
22176;SDS011;11254;50.098;8.726;2022-09-30T07:31:27;15.75;;;6.47;;
22176;SDS011;11254;50.098;8.726;2022-09-30T07:34:00;9.25;;;5.55;;
22176;SDS011;11254;50.098;8.726;2022-09-30T07:36:28;9.98;;;6.00;;
22176;SDS011;11254;50.098;8.726;2022-09-30T07:38:59;15.07;;;6.93;;
22176;SDS011;11254;50.098;8.726;2022-09-30T07:41:31;15.27;;;6.65;;
22176;SDS011;11254;50.098;8.726;2022-09-30T07:44:02;12.93;;;6.43;;
22176;SDS011;11254;50.098;8.726;2022-09-30T07:46:32;12.93;;;6.30;;
22176;SDS011;11254;50.098;8.726;2022-09-30T07:49:01;9.93;;;5.50;;
22176;SDS011;11254;50.098;8.726;2022-09-30T07:51:33;12.73;;;7.18;;
22176;SDS011;11254;50.098;8.726;2022-09-30T07:54:03;11.50;;;6.63;;
22176;SDS011;11254;50.098;8.726;2022-09-30T07:56:32;9.82;;;5.72;;
22176;SDS011;11254;50.098;8.726;2022-09-30T07:59:23;17.20;;;6.50;;
22176;SDS011;11254;50.098;8.726;2022-09-30T08:01:54;8.80;;;4.20;;
22176;SDS011;11254;50.098;8.726;2022-09-30T08:04:23;12.20;;;4.78;;
22176;SDS011;11254;50.098;8.726;2022-09-30T08:06:53;15.18;;;4.70;;
22176;SDS011;11254;50.098;8.726;2022-09-30T08:09:22;7.28;;;4.15;;
22176;SDS011;11254;50.098;8.726;2022-09-30T08:11:51;6.82;;;4.00;;
22176;SDS011;11254;50.098;8.726;2022-09-30T08:14:20;7.03;;;3.97;;
22176;SDS011;11254;50.098;8.726;2022-09-30T08:16:50;8.80;;;4.35;;
22176;SDS011;11254;50.098;8.726;2022-09-30T08:19:20;7.03;;;3.72;;
22176;SDS011;11254;50.098;8.726;2022-09-30T08:21:49;7.40;;;3.25;;
22176;SDS011;11254;50.098;8.726;2022-09-30T08:24:19;6.63;;;3.92;;
22176;SDS011;11254;50.098;8.726;2022-09-30T08:26:47;6.20;;;3.85;;
22176;SDS011;11254;50.098;8.726;2022-09-30T08:29:16;7.63;;;5.53;;
22176;SDS011;11254;50.098;8.726;2022-09-30T08:32:04;9.20;;;4.88;;
22176;SDS011;11254;50.098;8.726;2022-09-30T08:34:34;7.60;;;4.10;;
22176;SDS011;11254;50.098;8.726;2022-09-30T08:37:03;6.88;;;4.05;;
22176;SDS011;11254;50.098;8.726;2022-09-30T08:39:35;5.22;;;3.38;;
22176;SDS011;11254;50.098;8.726;2022-09-30T08:42:06;6.00;;;3.60;;
22176;SDS011;11254;50.098;8.726;2022-09-30T08:45:00;6.53;;;3.60;;
22176;SDS011;11254;50.098;8.726;2022-09-30T08:47:34;5.38;;;3.20;;
22176;SDS011;11254;50.098;8.726;2022-09-30T08:50:12;5.60;;;3.42;;
22176;SDS011;11254;50.098;8.726;2022-09-30T08:52:42;6.18;;;3.80;;
22176;SDS011;11254;50.098;8.726;2022-09-30T08:55:17;6.63;;;3.58;;
22176;SDS011;11254;50.098;8.726;2022-09-30T08:57:46;11.85;;;4.10;;
22176;SDS011;11254;50.098;8.726;2022-09-30T09:00:15;10.27;;;4.18;;
22176;SDS011;11254;50.098;8.726;2022-09-30T09:02:44;7.10;;;3.55;;
22176;SDS011;11254;50.098;8.726;2022-09-30T09:05:18;7.00;;;3.63;;
22176;SDS011;11254;50.098;8.726;2022-09-30T09:07:49;6.45;;;3.85;;
22176;SDS011;11254;50.098;8.726;2022-09-30T09:10:22;6.55;;;4.13;;
22176;SDS011;11254;50.098;8.726;2022-09-30T09:12:55;7.72;;;3.97;;
22176;SDS011;11254;50.098;8.726;2022-09-30T09:18:18;8.52;;;4.28;;
22176;SDS011;11254;50.098;8.726;2022-09-30T09:20:54;8.40;;;4.85;;
22176;SDS011;11254;50.098;8.726;2022-09-30T09:23:23;7.00;;;4.20;;
22176;SDS011;11254;50.098;8.726;2022-09-30T09:25:51;7.43;;;4.00;;
22176;SDS011;11254;50.098;8.726;2022-09-30T09:28:23;5.70;;;4.05;;
22176;SDS011;11254;50.098;8.726;2022-09-30T09:30:53;6.88;;;4.18;;
22176;SDS011;11254;50.098;8.726;2022-09-30T09:33:25;10.30;;;4.30;;
22176;SDS011;11254;50.098;8.726;2022-09-30T09:36:00;6.13;;;4.22;;
22176;SDS011;11254;50.098;8.726;2022-09-30T09:38:30;14.35;;;5.97;;
22176;SDS011;11254;50.098;8.726;2022-09-30T09:41:04;6.68;;;3.53;;
22176;SDS011;11254;50.098;8.726;2022-09-30T09:43:39;7.38;;;3.40;;
22176;SDS011;11254;50.098;8.726;2022-09-30T09:46:10;7.95;;;3.90;;
22176;SDS011;11254;50.098;8.726;2022-09-30T09:48:40;8.88;;;3.80;;
22176;SDS011;11254;50.098;8.726;2022-09-30T09:51:13;9.35;;;5.88;;
22176;SDS011;11254;50.098;8.726;2022-09-30T09:53:46;6.50;;;3.45;;
22176;SDS011;11254;50.098;8.726;2022-09-30T09:56:16;9.82;;;4.50;;
22176;SDS011;11254;50.098;8.726;2022-09-30T09:59:07;10.00;;;4.13;;
22176;SDS011;11254;50.098;8.726;2022-09-30T10:01:36;8.82;;;3.40;;
22176;SDS011;11254;50.098;8.726;2022-09-30T10:04:06;8.95;;;4.30;;
22176;SDS011;11254;50.098;8.726;2022-09-30T10:06:48;9.63;;;3.70;;
22176;SDS011;11254;50.098;8.726;2022-09-30T10:09:21;6.93;;;3.53;;
22176;SDS011;11254;50.098;8.726;2022-09-30T10:11:50;20.02;;;7.05;;
22176;SDS011;11254;50.098;8.726;2022-09-30T10:14:19;10.25;;;3.90;;
22176;SDS011;11254;50.098;8.726;2022-09-30T10:16:48;17.85;;;4.57;;
22176;SDS011;11254;50.098;8.726;2022-09-30T10:19:17;6.30;;;3.42;;
22176;SDS011;11254;50.098;8.726;2022-09-30T10:21:48;27.10;;;5.15;;
22176;SDS011;11254;50.098;8.726;2022-09-30T10:24:25;6.88;;;3.42;;
22176;SDS011;11254;50.098;8.726;2022-09-30T10:26:55;5.97;;;3.35;;
22176;SDS011;11254;50.098;8.726;2022-09-30T10:29:24;7.45;;;3.38;;
22176;SDS011;11254;50.098;8.726;2022-09-30T10:31:53;7.72;;;3.67;;
22176;SDS011;11254;50.098;8.726;2022-09-30T10:34:26;8.00;;;3.80;;
22176;SDS011;11254;50.098;8.726;2022-09-30T10:36:57;21.52;;;5.80;;
22176;SDS011;11254;50.098;8.726;2022-09-30T10:39:26;8.32;;;3.88;;
22176;SDS011;11254;50.098;8.726;2022-09-30T10:41:59;23.77;;;5.07;;
22176;SDS011;11254;50.098;8.726;2022-09-30T10:44:28;13.75;;;4.65;;
22176;SDS011;11254;50.098;8.726;2022-09-30T10:46:57;21.52;;;6.20;;
22176;SDS011;11254;50.098;8.726;2022-09-30T10:49:28;20.48;;;6.63;;
22176;SDS011;11254;50.098;8.726;2022-09-30T10:51:59;7.05;;;3.92;;
22176;SDS011;11254;50.098;8.726;2022-09-30T10:54:33;29.33;;;9.02;;
22176;SDS011;11254;50.098;8.726;2022-09-30T10:57:02;13.05;;;5.60;;
22176;SDS011;11254;50.098;8.726;2022-09-30T10:59:31;6.90;;;3.55;;
22176;SDS011;11254;50.098;8.726;2022-09-30T11:02:12;18.17;;;6.22;;
22176;SDS011;11254;50.098;8.726;2022-09-30T11:04:44;12.23;;;4.15;;
22176;SDS011;11254;50.098;8.726;2022-09-30T11:07:18;33.65;;;5.18;;
22176;SDS011;11254;50.098;8.726;2022-09-30T11:09:49;13.38;;;3.78;;
22176;SDS011;11254;50.098;8.726;2022-09-30T11:12:22;7.88;;;2.90;;
22176;SDS011;11254;50.098;8.726;2022-09-30T11:14:54;6.53;;;3.47;;
22176;SDS011;11254;50.098;8.726;2022-09-30T11:17:26;10.23;;;3.53;;
22176;SDS011;11254;50.098;8.726;2022-09-30T11:20:00;5.97;;;2.10;;
22176;SDS011;11254;50.098;8.726;2022-09-30T11:22:36;4.55;;;2.30;;
22176;SDS011;11254;50.098;8.726;2022-09-30T11:25:07;9.57;;;4.53;;
22176;SDS011;11254;50.098;8.726;2022-09-30T11:27:42;5.53;;;2.55;;
22176;SDS011;11254;50.098;8.726;2022-09-30T11:30:15;4.85;;;2.13;;
22176;SDS011;11254;50.098;8.726;2022-09-30T11:32:52;19.75;;;5.93;;
22176;SDS011;11254;50.098;8.726;2022-09-30T11:35:29;6.55;;;2.53;;
22176;SDS011;11254;50.098;8.726;2022-09-30T11:38:04;9.73;;;2.10;;
22176;SDS011;11254;50.098;8.726;2022-09-30T11:40:36;9.50;;;2.60;;
22176;SDS011;11254;50.098;8.726;2022-09-30T11:43:07;8.70;;;2.97;;
22176;SDS011;11254;50.098;8.726;2022-09-30T11:45:42;19.02;;;4.25;;
22176;SDS011;11254;50.098;8.726;2022-09-30T11:48:26;6.95;;;2.75;;
22176;SDS011;11254;50.098;8.726;2022-09-30T11:51:01;6.25;;;2.17;;
22176;SDS011;11254;50.098;8.726;2022-09-30T11:53:36;9.32;;;2.63;;
22176;SDS011;11254;50.098;8.726;2022-09-30T11:56:12;6.07;;;2.50;;
22176;SDS011;11254;50.098;8.726;2022-09-30T11:58:42;4.72;;;2.22;;
22176;SDS011;11254;50.098;8.726;2022-09-30T12:01:15;7.63;;;2.70;;
22176;SDS011;11254;50.098;8.726;2022-09-30T12:03:48;6.28;;;1.90;;
22176;SDS011;11254;50.098;8.726;2022-09-30T12:06:23;4.05;;;1.60;;
22176;SDS011;11254;50.098;8.726;2022-09-30T12:08:56;7.15;;;2.33;;
22176;SDS011;11254;50.098;8.726;2022-09-30T12:11:29;4.70;;;2.20;;
22176;SDS011;11254;50.098;8.726;2022-09-30T12:14:00;5.15;;;1.80;;
22176;SDS011;11254;50.098;8.726;2022-09-30T12:16:30;4.45;;;1.70;;
22176;SDS011;11254;50.098;8.726;2022-09-30T12:19:01;5.00;;;2.20;;
22176;SDS011;11254;50.098;8.726;2022-09-30T12:21:32;5.38;;;2.83;;
22176;SDS011;11254;50.098;8.726;2022-09-30T12:24:06;3.25;;;1.60;;
22176;SDS011;11254;50.098;8.726;2022-09-30T12:26:36;3.58;;;1.77;;
22176;SDS011;11254;50.098;8.726;2022-09-30T12:29:05;4.85;;;2.03;;
22176;SDS011;11254;50.098;8.726;2022-09-30T12:32:02;4.78;;;1.88;;
22176;SDS011;11254;50.098;8.726;2022-09-30T12:34:42;4.53;;;2.00;;
22176;SDS011;11254;50.098;8.726;2022-09-30T12:37:17;6.10;;;2.00;;
22176;SDS011;11254;50.098;8.726;2022-09-30T12:39:52;14.98;;;2.20;;
22176;SDS011;11254;50.098;8.726;2022-09-30T12:45:20;4.88;;;1.50;;
22176;SDS011;11254;50.098;8.726;2022-09-30T12:47:52;4.50;;;1.40;;
22176;SDS011;11254;50.098;8.726;2022-09-30T12:50:23;5.78;;;1.50;;
22176;SDS011;11254;50.098;8.726;2022-09-30T12:52:54;5.70;;;1.73;;
22176;SDS011;11254;50.098;8.726;2022-09-30T12:55:26;7.82;;;2.50;;
22176;SDS011;11254;50.098;8.726;2022-09-30T12:57:57;5.45;;;1.90;;
22176;SDS011;11254;50.098;8.726;2022-09-30T13:00:27;6.10;;;2.10;;
22176;SDS011;11254;50.098;8.726;2022-09-30T13:02:57;19.67;;;3.15;;
22176;SDS011;11254;50.098;8.726;2022-09-30T13:05:41;4.38;;;1.70;;
22176;SDS011;11254;50.098;8.726;2022-09-30T13:08:23;6.38;;;1.80;;
22176;SDS011;11254;50.098;8.726;2022-09-30T13:11:00;8.20;;;1.88;;
22176;SDS011;11254;50.098;8.726;2022-09-30T13:13:32;2.88;;;1.30;;
22176;SDS011;11254;50.098;8.726;2022-09-30T13:16:02;3.97;;;1.65;;
22176;SDS011;11254;50.098;8.726;2022-09-30T13:21:19;4.72;;;1.50;;
22176;SDS011;11254;50.098;8.726;2022-09-30T13:23:48;8.38;;;1.63;;
22176;SDS011;11254;50.098;8.726;2022-09-30T13:32:02;4.95;;;1.60;;
22176;SDS011;11254;50.098;8.726;2022-09-30T13:34:32;4.78;;;1.10;;
22176;SDS011;11254;50.098;8.726;2022-09-30T13:37:02;8.50;;;1.30;;
22176;SDS011;11254;50.098;8.726;2022-09-30T13:39:30;5.93;;;1.30;;
22176;SDS011;11254;50.098;8.726;2022-09-30T13:42:11;13.80;;;6.97;;
22176;SDS011;11254;50.098;8.726;2022-09-30T13:44:54;10.85;;;2.00;;
22176;SDS011;11254;50.098;8.726;2022-09-30T13:47:26;4.05;;;1.35;;
22176;SDS011;11254;50.098;8.726;2022-09-30T13:49:56;2.92;;;1.27;;
22176;SDS011;11254;50.098;8.726;2022-09-30T13:52:26;2.53;;;1.20;;
22176;SDS011;11254;50.098;8.726;2022-09-30T13:54:57;3.75;;;1.13;;
22176;SDS011;11254;50.098;8.726;2022-09-30T13:57:27;4.45;;;1.50;;
22176;SDS011;11254;50.098;8.726;2022-09-30T14:00:04;3.20;;;1.27;;
22176;SDS011;11254;50.098;8.726;2022-09-30T14:02:45;10.93;;;1.92;;
22176;SDS011;11254;50.098;8.726;2022-09-30T14:08:06;4.47;;;1.40;;
22176;SDS011;11254;50.098;8.726;2022-09-30T14:10:40;4.00;;;1.70;;
22176;SDS011;11254;50.098;8.726;2022-09-30T14:13:18;3.13;;;1.17;;
22176;SDS011;11254;50.098;8.726;2022-09-30T14:15:54;2.72;;;1.20;;
22176;SDS011;11254;50.098;8.726;2022-09-30T14:18:40;4.45;;;1.83;;
22176;SDS011;11254;50.098;8.726;2022-09-30T14:21:19;2.63;;;1.17;;
22176;SDS011;11254;50.098;8.726;2022-09-30T14:23:57;4.43;;;1.58;;
22176;SDS011;11254;50.098;8.726;2022-09-30T14:26:47;5.00;;;1.45;;
22176;SDS011;11254;50.098;8.726;2022-09-30T14:29:20;3.75;;;1.20;;
22176;SDS011;11254;50.098;8.726;2022-09-30T14:31:50;6.03;;;1.38;;
22176;SDS011;11254;50.098;8.726;2022-09-30T14:34:20;8.52;;;1.58;;
22176;SDS011;11254;50.098;8.726;2022-09-30T14:36:50;4.07;;;1.38;;
22176;SDS011;11254;50.098;8.726;2022-09-30T14:39:20;3.03;;;1.50;;
22176;SDS011;11254;50.098;8.726;2022-09-30T14:41:51;4.55;;;1.23;;
22176;SDS011;11254;50.098;8.726;2022-09-30T14:44:21;4.95;;;1.70;;
22176;SDS011;11254;50.098;8.726;2022-09-30T14:46:51;5.28;;;1.65;;
22176;SDS011;11254;50.098;8.726;2022-09-30T14:49:28;3.30;;;1.35;;
22176;SDS011;11254;50.098;8.726;2022-09-30T14:52:01;4.72;;;1.48;;
22176;SDS011;11254;50.098;8.726;2022-09-30T14:54:30;5.30;;;1.65;;
22176;SDS011;11254;50.098;8.726;2022-09-30T14:57:00;4.78;;;1.60;;
22176;SDS011;11254;50.098;8.726;2022-09-30T14:59:30;4.32;;;1.52;;
22176;SDS011;11254;50.098;8.726;2022-09-30T15:01:59;3.80;;;1.40;;
22176;SDS011;11254;50.098;8.726;2022-09-30T15:04:31;3.85;;;1.60;;
22176;SDS011;11254;50.098;8.726;2022-09-30T15:07:00;3.88;;;1.50;;
22176;SDS011;11254;50.098;8.726;2022-09-30T15:09:31;7.28;;;1.50;;
22176;SDS011;11254;50.098;8.726;2022-09-30T15:12:02;4.15;;;1.80;;
22176;SDS011;11254;50.098;8.726;2022-09-30T15:14:31;3.33;;;1.60;;
22176;SDS011;11254;50.098;8.726;2022-09-30T15:17:00;5.45;;;1.50;;
22176;SDS011;11254;50.098;8.726;2022-09-30T15:19:33;5.13;;;1.98;;
22176;SDS011;11254;50.098;8.726;2022-09-30T15:22:02;4.95;;;2.03;;
22176;SDS011;11254;50.098;8.726;2022-09-30T15:24:31;5.07;;;1.98;;
22176;SDS011;11254;50.098;8.726;2022-09-30T15:27:01;5.63;;;1.65;;
22176;SDS011;11254;50.098;8.726;2022-09-30T15:29:30;4.07;;;1.73;;